メインページ
METAR-TAF:

METAR-TAF

空港 :

Warsaw Municipal Airport

Warsaw, インディアナ州, アメリカ合衆国

緯度: 41-16-28N, 経度: 085-50-24W, 海抜: 259m

現時点の気象観測

当レポートは18分前の23:55(UTC)に作成
東/北東の風 3kt
気温 20°C
湿度 60%
気圧 1022 hPa
視程: 16.1km
晴天

METAR: KASW 232355Z AUTO 06003KT 10SM CLR 20/12 A3017 RMK AO2

時間: 20:13 (00:13 UTC)


TAF: 見つかりません

4,000以上の空港の気象観測と天気予報(METAR報とTAF報)

利用可能な観測所は地図上に黄色い丸と赤い丸で示す。

丸の上にカーソルを重ねると観測所名を参照できる。

次にクリックすると気象観測と天気予報を参照できる。

マップの切り替え:黒色「×」印の緑ボタンをクリックして拡大、「-」印の緑ボタンをクリックして縮小、緑色の三角印をクリックして隣りの地図に切り替え


METAR-TAF: